sensor_id;sensor_type;location;lat;lon;timestamp;P1;durP1;ratioP1;P2;durP2;ratioP2
33830;SDS011;20137;48.834;8.732;2022-09-13T00:00:13;3.92;;;1.98;;
33830;SDS011;20137;48.834;8.732;2022-09-13T00:02:39;2.45;;;1.95;;
33830;SDS011;20137;48.834;8.732;2022-09-13T00:05:04;3.00;;;2.17;;
33830;SDS011;20137;48.834;8.732;2022-09-13T00:07:31;4.25;;;1.83;;
33830;SDS011;20137;48.834;8.732;2022-09-13T00:12:26;3.70;;;2.22;;
33830;SDS011;20137;48.834;8.732;2022-09-13T00:14:52;2.80;;;1.90;;
33830;SDS011;20137;48.834;8.732;2022-09-13T00:17:18;2.10;;;1.90;;
33830;SDS011;20137;48.834;8.732;2022-09-13T00:19:45;2.17;;;1.77;;
33830;SDS011;20137;48.834;8.732;2022-09-13T00:22:11;3.25;;;1.65;;
33830;SDS011;20137;48.834;8.732;2022-09-13T00:24:37;2.90;;;1.88;;
33830;SDS011;20137;48.834;8.732;2022-09-13T00:27:04;1.73;;;1.63;;
33830;SDS011;20137;48.834;8.732;2022-09-13T00:29:31;2.72;;;2.00;;
33830;SDS011;20137;48.834;8.732;2022-09-13T00:31:57;1.75;;;1.50;;
33830;SDS011;20137;48.834;8.732;2022-09-13T00:34:23;2.83;;;1.67;;
33830;SDS011;20137;48.834;8.732;2022-09-13T00:36:50;2.25;;;1.75;;
33830;SDS011;20137;48.834;8.732;2022-09-13T00:39:17;3.10;;;1.50;;
33830;SDS011;20137;48.834;8.732;2022-09-13T00:41:43;2.20;;;1.88;;
33830;SDS011;20137;48.834;8.732;2022-09-13T00:47:14;2.40;;;1.80;;
33830;SDS011;20137;48.834;8.732;2022-09-13T00:49:45;1.40;;;1.30;;
33830;SDS011;20137;48.834;8.732;2022-09-13T00:52:17;2.22;;;1.52;;
33830;SDS011;20137;48.834;8.732;2022-09-13T00:54:54;2.63;;;1.35;;
33830;SDS011;20137;48.834;8.732;2022-09-13T00:57:31;2.15;;;1.30;;
33830;SDS011;20137;48.834;8.732;2022-09-13T01:00:05;1.70;;;1.25;;
33830;SDS011;20137;48.834;8.732;2022-09-13T01:02:39;2.50;;;1.90;;
33830;SDS011;20137;48.834;8.732;2022-09-13T01:05:12;1.50;;;1.40;;
33830;SDS011;20137;48.834;8.732;2022-09-13T01:07:42;3.50;;;1.60;;
33830;SDS011;20137;48.834;8.732;2022-09-13T01:10:08;2.58;;;1.83;;
33830;SDS011;20137;48.834;8.732;2022-09-13T01:12:49;6.00;;;1.73;;
33830;SDS011;20137;48.834;8.732;2022-09-13T01:15:23;2.30;;;1.60;;
33830;SDS011;20137;48.834;8.732;2022-09-13T01:17:49;2.08;;;1.65;;
33830;SDS011;20137;48.834;8.732;2022-09-13T01:20:16;2.35;;;1.90;;
33830;SDS011;20137;48.834;8.732;2022-09-13T01:22:51;3.67;;;1.58;;
33830;SDS011;20137;48.834;8.732;2022-09-13T01:39:48;3.97;;;2.05;;
33830;SDS011;20137;48.834;8.732;2022-09-13T01:48:48;2.28;;;1.60;;
33830;SDS011;20137;48.834;8.732;2022-09-13T01:51:22;5.40;;;1.73;;
33830;SDS011;20137;48.834;8.732;2022-09-13T01:54:08;4.75;;;1.60;;
33830;SDS011;20137;48.834;8.732;2022-09-13T01:56:43;2.28;;;1.38;;
33830;SDS011;20137;48.834;8.732;2022-09-13T01:59:40;2.65;;;1.42;;
33830;SDS011;20137;48.834;8.732;2022-09-13T02:02:20;2.50;;;1.65;;
33830;SDS011;20137;48.834;8.732;2022-09-13T02:05:13;6.35;;;1.85;;
33830;SDS011;20137;48.834;8.732;2022-09-13T02:07:47;1.73;;;1.33;;
33830;SDS011;20137;48.834;8.732;2022-09-13T02:10:21;1.55;;;1.45;;
33830;SDS011;20137;48.834;8.732;2022-09-13T02:12:51;4.90;;;1.65;;
33830;SDS011;20137;48.834;8.732;2022-09-13T02:15:24;4.63;;;1.70;;
33830;SDS011;20137;48.834;8.732;2022-09-13T02:18:03;4.95;;;1.48;;
33830;SDS011;20137;48.834;8.732;2022-09-13T02:20:40;2.90;;;1.50;;
33830;SDS011;20137;48.834;8.732;2022-09-13T02:23:09;3.03;;;1.40;;
33830;SDS011;20137;48.834;8.732;2022-09-13T02:25:39;2.15;;;1.50;;
33830;SDS011;20137;48.834;8.732;2022-09-13T02:28:06;1.60;;;1.33;;
33830;SDS011;20137;48.834;8.732;2022-09-13T02:30:36;1.77;;;1.52;;
33830;SDS011;20137;48.834;8.732;2022-09-13T02:35:50;3.28;;;1.63;;
33830;SDS011;20137;48.834;8.732;2022-09-13T02:41:12;1.90;;;1.40;;
33830;SDS011;20137;48.834;8.732;2022-09-13T02:43:56;1.58;;;1.48;;
33830;SDS011;20137;48.834;8.732;2022-09-13T02:49:40;1.70;;;1.60;;
33830;SDS011;20137;48.834;8.732;2022-09-13T03:00:24;2.17;;;1.45;;
33830;SDS011;20137;48.834;8.732;2022-09-13T03:02:50;2.92;;;1.40;;
33830;SDS011;20137;48.834;8.732;2022-09-13T03:05:17;2.08;;;1.50;;
33830;SDS011;20137;48.834;8.732;2022-09-13T03:07:43;2.45;;;1.70;;
33830;SDS011;20137;48.834;8.732;2022-09-13T03:10:09;1.45;;;1.35;;
33830;SDS011;20137;48.834;8.732;2022-09-13T03:17:53;3.03;;;1.50;;
33830;SDS011;20137;48.834;8.732;2022-09-13T03:26:13;3.05;;;1.50;;
33830;SDS011;20137;48.834;8.732;2022-09-13T03:31:42;1.63;;;1.40;;
33830;SDS011;20137;48.834;8.732;2022-09-13T03:34:28;6.35;;;1.40;;
33830;SDS011;20137;48.834;8.732;2022-09-13T03:36:56;2.83;;;1.35;;
33830;SDS011;20137;48.834;8.732;2022-09-13T03:39:32;2.78;;;1.67;;
33830;SDS011;20137;48.834;8.732;2022-09-13T03:42:11;3.45;;;1.63;;
33830;SDS011;20137;48.834;8.732;2022-09-13T03:44:46;1.52;;;1.40;;
33830;SDS011;20137;48.834;8.732;2022-09-13T03:47:14;3.13;;;1.73;;
33830;SDS011;20137;48.834;8.732;2022-09-13T03:49:41;3.65;;;1.45;;
33830;SDS011;20137;48.834;8.732;2022-09-13T03:52:08;2.10;;;1.55;;
33830;SDS011;20137;48.834;8.732;2022-09-13T03:54:36;2.28;;;1.70;;
33830;SDS011;20137;48.834;8.732;2022-09-13T03:57:07;2.95;;;1.63;;
33830;SDS011;20137;48.834;8.732;2022-09-13T03:59:36;2.97;;;1.73;;
33830;SDS011;20137;48.834;8.732;2022-09-13T04:02:04;2.03;;;1.70;;
33830;SDS011;20137;48.834;8.732;2022-09-13T04:04:31;3.17;;;1.40;;
33830;SDS011;20137;48.834;8.732;2022-09-13T04:06:57;6.60;;;1.77;;
33830;SDS011;20137;48.834;8.732;2022-09-13T04:09:25;1.65;;;1.45;;
33830;SDS011;20137;48.834;8.732;2022-09-13T04:11:51;3.85;;;1.92;;
33830;SDS011;20137;48.834;8.732;2022-09-13T04:14:17;2.90;;;1.70;;
33830;SDS011;20137;48.834;8.732;2022-09-13T04:16:42;2.13;;;1.50;;
33830;SDS011;20137;48.834;8.732;2022-09-13T04:19:08;3.20;;;1.90;;
33830;SDS011;20137;48.834;8.732;2022-09-13T04:21:34;1.90;;;1.70;;
33830;SDS011;20137;48.834;8.732;2022-09-13T04:24:00;3.70;;;2.00;;
33830;SDS011;20137;48.834;8.732;2022-09-13T04:26:26;4.22;;;2.00;;
33830;SDS011;20137;48.834;8.732;2022-09-13T04:28:52;4.07;;;2.00;;
33830;SDS011;20137;48.834;8.732;2022-09-13T04:31:17;4.35;;;2.22;;
33830;SDS011;20137;48.834;8.732;2022-09-13T04:33:43;4.40;;;2.00;;
33830;SDS011;20137;48.834;8.732;2022-09-13T04:36:09;3.85;;;1.70;;
33830;SDS011;20137;48.834;8.732;2022-09-13T04:38:35;3.78;;;1.80;;
33830;SDS011;20137;48.834;8.732;2022-09-13T04:41:01;2.30;;;1.77;;
33830;SDS011;20137;48.834;8.732;2022-09-13T04:43:27;3.28;;;1.88;;
33830;SDS011;20137;48.834;8.732;2022-09-13T04:45:53;2.80;;;2.00;;
33830;SDS011;20137;48.834;8.732;2022-09-13T04:48:23;3.60;;;1.88;;
33830;SDS011;20137;48.834;8.732;2022-09-13T04:50:49;3.42;;;1.90;;
33830;SDS011;20137;48.834;8.732;2022-09-13T04:53:14;3.22;;;1.80;;
33830;SDS011;20137;48.834;8.732;2022-09-13T04:55:42;2.17;;;1.90;;
33830;SDS011;20137;48.834;8.732;2022-09-13T04:58:08;2.83;;;2.10;;
33830;SDS011;20137;48.834;8.732;2022-09-13T05:00:33;3.95;;;1.95;;
33830;SDS011;20137;48.834;8.732;2022-09-13T05:03:00;3.58;;;1.88;;
33830;SDS011;20137;48.834;8.732;2022-09-13T05:05:26;2.83;;;1.60;;
33830;SDS011;20137;48.834;8.732;2022-09-13T05:07:53;2.40;;;1.95;;
33830;SDS011;20137;48.834;8.732;2022-09-13T05:10:19;2.83;;;1.85;;
33830;SDS011;20137;48.834;8.732;2022-09-13T05:12:45;6.28;;;1.67;;
33830;SDS011;20137;48.834;8.732;2022-09-13T05:15:10;2.83;;;2.15;;
33830;SDS011;20137;48.834;8.732;2022-09-13T05:17:36;2.97;;;1.90;;
33830;SDS011;20137;48.834;8.732;2022-09-13T05:20:02;4.75;;;2.08;;
33830;SDS011;20137;48.834;8.732;2022-09-13T05:22:29;3.58;;;1.80;;
33830;SDS011;20137;48.834;8.732;2022-09-13T05:24:55;2.53;;;1.40;;
33830;SDS011;20137;48.834;8.732;2022-09-13T05:27:21;2.35;;;1.90;;
33830;SDS011;20137;48.834;8.732;2022-09-13T05:29:47;3.10;;;1.60;;
33830;SDS011;20137;48.834;8.732;2022-09-13T05:32:13;3.05;;;1.80;;
33830;SDS011;20137;48.834;8.732;2022-09-13T05:34:39;3.97;;;1.80;;
33830;SDS011;20137;48.834;8.732;2022-09-13T05:37:05;1.85;;;1.48;;
33830;SDS011;20137;48.834;8.732;2022-09-13T05:39:31;2.65;;;1.77;;
33830;SDS011;20137;48.834;8.732;2022-09-13T05:41:57;3.72;;;1.98;;
33830;SDS011;20137;48.834;8.732;2022-09-13T05:44:22;4.07;;;2.05;;
33830;SDS011;20137;48.834;8.732;2022-09-13T05:46:48;2.13;;;1.63;;
33830;SDS011;20137;48.834;8.732;2022-09-13T05:49:14;5.35;;;2.13;;
33830;SDS011;20137;48.834;8.732;2022-09-13T05:51:40;2.08;;;1.40;;
33830;SDS011;20137;48.834;8.732;2022-09-13T05:54:05;1.77;;;1.45;;
33830;SDS011;20137;48.834;8.732;2022-09-13T05:56:31;1.50;;;1.40;;
33830;SDS011;20137;48.834;8.732;2022-09-13T05:58:57;1.70;;;1.48;;
33830;SDS011;20137;48.834;8.732;2022-09-13T06:01:24;2.40;;;1.50;;
33830;SDS011;20137;48.834;8.732;2022-09-13T06:03:52;4.20;;;1.63;;
33830;SDS011;20137;48.834;8.732;2022-09-13T06:06:20;2.97;;;1.70;;
33830;SDS011;20137;48.834;8.732;2022-09-13T06:08:46;3.05;;;1.67;;
33830;SDS011;20137;48.834;8.732;2022-09-13T06:11:13;3.72;;;1.50;;
33830;SDS011;20137;48.834;8.732;2022-09-13T06:13:40;2.42;;;1.48;;
33830;SDS011;20137;48.834;8.732;2022-09-13T06:16:09;2.42;;;1.50;;
33830;SDS011;20137;48.834;8.732;2022-09-13T06:18:37;1.98;;;1.42;;
33830;SDS011;20137;48.834;8.732;2022-09-13T06:21:07;4.32;;;1.73;;
33830;SDS011;20137;48.834;8.732;2022-09-13T06:23:35;2.30;;;1.30;;
33830;SDS011;20137;48.834;8.732;2022-09-13T06:26:03;2.10;;;1.20;;
33830;SDS011;20137;48.834;8.732;2022-09-13T06:28:33;2.53;;;1.17;;
33830;SDS011;20137;48.834;8.732;2022-09-13T06:31:03;3.30;;;1.20;;
33830;SDS011;20137;48.834;8.732;2022-09-13T06:33:37;2.78;;;1.35;;
33830;SDS011;20137;48.834;8.732;2022-09-13T06:36:08;1.52;;;1.35;;
33830;SDS011;20137;48.834;8.732;2022-09-13T06:38:37;1.80;;;1.25;;
33830;SDS011;20137;48.834;8.732;2022-09-13T06:41:10;2.03;;;1.10;;
33830;SDS011;20137;48.834;8.732;2022-09-13T06:43:38;4.88;;;1.40;;
33830;SDS011;20137;48.834;8.732;2022-09-13T06:46:05;2.03;;;1.30;;
33830;SDS011;20137;48.834;8.732;2022-09-13T06:48:42;2.22;;;1.38;;
33830;SDS011;20137;48.834;8.732;2022-09-13T06:51:10;1.50;;;1.17;;
33830;SDS011;20137;48.834;8.732;2022-09-13T06:53:38;6.00;;;1.88;;
33830;SDS011;20137;48.834;8.732;2022-09-13T06:56:06;5.53;;;1.35;;
33830;SDS011;20137;48.834;8.732;2022-09-13T06:58:34;2.42;;;1.30;;
33830;SDS011;20137;48.834;8.732;2022-09-13T07:01:09;4.00;;;1.63;;
33830;SDS011;20137;48.834;8.732;2022-09-13T07:03:37;3.47;;;1.20;;
33830;SDS011;20137;48.834;8.732;2022-09-13T07:06:07;1.15;;;1.05;;
33830;SDS011;20137;48.834;8.732;2022-09-13T07:08:38;2.85;;;1.50;;
33830;SDS011;20137;48.834;8.732;2022-09-13T07:11:05;5.93;;;1.42;;
33830;SDS011;20137;48.834;8.732;2022-09-13T07:13:31;3.55;;;1.30;;
33830;SDS011;20137;48.834;8.732;2022-09-13T07:15:59;1.58;;;1.10;;
33830;SDS011;20137;48.834;8.732;2022-09-13T07:18:26;2.47;;;1.20;;
33830;SDS011;20137;48.834;8.732;2022-09-13T07:20:52;1.40;;;1.17;;
33830;SDS011;20137;48.834;8.732;2022-09-13T07:23:33;2.80;;;1.65;;
33830;SDS011;20137;48.834;8.732;2022-09-13T07:26:00;4.43;;;1.50;;
33830;SDS011;20137;48.834;8.732;2022-09-13T07:28:28;2.35;;;1.30;;
33830;SDS011;20137;48.834;8.732;2022-09-13T07:30:56;4.30;;;1.42;;
33830;SDS011;20137;48.834;8.732;2022-09-13T07:33:28;2.22;;;1.05;;
33830;SDS011;20137;48.834;8.732;2022-09-13T07:35:55;2.97;;;1.10;;
33830;SDS011;20137;48.834;8.732;2022-09-13T07:38:21;1.10;;;1.00;;
33830;SDS011;20137;48.834;8.732;2022-09-13T07:40:54;8.00;;;1.35;;
33830;SDS011;20137;48.834;8.732;2022-09-13T07:43:22;3.85;;;1.13;;
33830;SDS011;20137;48.834;8.732;2022-09-13T07:45:54;4.30;;;0.98;;
33830;SDS011;20137;48.834;8.732;2022-09-13T07:48:25;1.25;;;0.90;;
33830;SDS011;20137;48.834;8.732;2022-09-13T07:53:53;2.20;;;1.10;;
33830;SDS011;20137;48.834;8.732;2022-09-13T07:56:21;5.30;;;1.15;;
33830;SDS011;20137;48.834;8.732;2022-09-13T07:58:48;1.67;;;1.20;;
33830;SDS011;20137;48.834;8.732;2022-09-13T08:01:16;2.78;;;1.10;;
33830;SDS011;20137;48.834;8.732;2022-09-13T08:03:49;2.47;;;1.17;;
33830;SDS011;20137;48.834;8.732;2022-09-13T08:06:16;1.80;;;1.17;;
33830;SDS011;20137;48.834;8.732;2022-09-13T08:08:42;1.80;;;1.10;;
33830;SDS011;20137;48.834;8.732;2022-09-13T08:11:14;2.08;;;1.20;;
33830;SDS011;20137;48.834;8.732;2022-09-13T08:13:43;1.80;;;1.15;;
33830;SDS011;20137;48.834;8.732;2022-09-13T08:16:09;2.13;;;1.40;;
33830;SDS011;20137;48.834;8.732;2022-09-13T08:18:35;2.38;;;1.27;;
33830;SDS011;20137;48.834;8.732;2022-09-13T08:21:01;2.65;;;1.45;;
33830;SDS011;20137;48.834;8.732;2022-09-13T08:23:27;2.83;;;1.33;;
33830;SDS011;20137;48.834;8.732;2022-09-13T08:25:53;2.45;;;1.02;;
33830;SDS011;20137;48.834;8.732;2022-09-13T08:28:24;2.33;;;1.00;;
33830;SDS011;20137;48.834;8.732;2022-09-13T08:30:50;2.75;;;1.30;;
33830;SDS011;20137;48.834;8.732;2022-09-13T08:33:15;3.15;;;1.40;;
33830;SDS011;20137;48.834;8.732;2022-09-13T08:35:49;2.45;;;0.90;;
33830;SDS011;20137;48.834;8.732;2022-09-13T08:38:19;1.27;;;0.80;;
33830;SDS011;20137;48.834;8.732;2022-09-13T08:40:49;1.50;;;1.00;;
33830;SDS011;20137;48.834;8.732;2022-09-13T08:49:00;3.40;;;1.10;;
33830;SDS011;20137;48.834;8.732;2022-09-13T08:51:31;2.20;;;1.15;;
33830;SDS011;20137;48.834;8.732;2022-09-13T08:54:25;1.83;;;1.00;;
33830;SDS011;20137;48.834;8.732;2022-09-13T09:02:18;2.80;;;0.90;;
33830;SDS011;20137;48.834;8.732;2022-09-13T09:07:41;1.48;;;0.90;;
33830;SDS011;20137;48.834;8.732;2022-09-13T09:10:19;3.08;;;1.00;;
33830;SDS011;20137;48.834;8.732;2022-09-13T09:12:53;4.35;;;1.35;;
33830;SDS011;20137;48.834;8.732;2022-09-13T09:15:27;1.95;;;1.10;;
33830;SDS011;20137;48.834;8.732;2022-09-13T09:20:37;3.55;;;0.98;;
33830;SDS011;20137;48.834;8.732;2022-09-13T09:26:10;1.70;;;1.40;;
33830;SDS011;20137;48.834;8.732;2022-09-13T09:28:48;3.50;;;1.00;;
33830;SDS011;20137;48.834;8.732;2022-09-13T09:34:02;1.33;;;1.10;;
33830;SDS011;20137;48.834;8.732;2022-09-13T09:36:56;3.13;;;1.25;;
33830;SDS011;20137;48.834;8.732;2022-09-13T09:39:38;2.10;;;1.10;;
33830;SDS011;20137;48.834;8.732;2022-09-13T09:42:09;2.33;;;1.00;;
33830;SDS011;20137;48.834;8.732;2022-09-13T09:44:38;2.85;;;1.20;;
33830;SDS011;20137;48.834;8.732;2022-09-13T09:47:23;4.15;;;0.98;;
33830;SDS011;20137;48.834;8.732;2022-09-13T09:50:09;1.48;;;0.98;;
33830;SDS011;20137;48.834;8.732;2022-09-13T09:55:10;2.63;;;0.82;;
33830;SDS011;20137;48.834;8.732;2022-09-13T10:00:26;0.70;;;0.70;;
33830;SDS011;20137;48.834;8.732;2022-09-13T10:02:59;1.00;;;0.70;;
33830;SDS011;20137;48.834;8.732;2022-09-13T10:05:30;4.13;;;0.82;;
33830;SDS011;20137;48.834;8.732;2022-09-13T10:08:00;2.95;;;1.17;;
33830;SDS011;20137;48.834;8.732;2022-09-13T10:13:00;2.55;;;0.63;;
33830;SDS011;20137;48.834;8.732;2022-09-13T10:15:28;1.52;;;0.63;;
33830;SDS011;20137;48.834;8.732;2022-09-13T10:20:40;2.40;;;1.02;;
33830;SDS011;20137;48.834;8.732;2022-09-13T10:25:40;3.72;;;1.27;;
33830;SDS011;20137;48.834;8.732;2022-09-13T10:28:13;2.83;;;1.00;;
33830;SDS011;20137;48.834;8.732;2022-09-13T10:30:47;2.03;;;1.00;;
33830;SDS011;20137;48.834;8.732;2022-09-13T10:33:24;1.92;;;1.20;;
33830;SDS011;20137;48.834;8.732;2022-09-13T10:36:24;1.17;;;1.08;;
33830;SDS011;20137;48.834;8.732;2022-09-13T10:41:26;1.92;;;0.82;;
33830;SDS011;20137;48.834;8.732;2022-09-13T10:44:01;1.55;;;0.90;;
33830;SDS011;20137;48.834;8.732;2022-09-13T10:46:29;1.20;;;0.98;;
33830;SDS011;20137;48.834;8.732;2022-09-13T10:48:57;1.13;;;0.70;;
33830;SDS011;20137;48.834;8.732;2022-09-13T10:56:32;1.83;;;0.90;;
33830;SDS011;20137;48.834;8.732;2022-09-13T11:10:02;1.10;;;0.75;;
33830;SDS011;20137;48.834;8.732;2022-09-13T11:30:09;3.28;;;0.80;;
33830;SDS011;20137;48.834;8.732;2022-09-13T11:32:39;1.25;;;0.80;;
33830;SDS011;20137;48.834;8.732;2022-09-13T11:38:11;2.20;;;1.23;;
33830;SDS011;20137;48.834;8.732;2022-09-13T11:40:34;7.55;;;1.25;;
33830;SDS011;20137;48.834;8.732;2022-09-13T11:48:55;6.25;;;1.27;;
33830;SDS011;20137;48.834;8.732;2022-09-13T11:51:34;3.60;;;1.33;;
33830;SDS011;20137;48.834;8.732;2022-09-13T11:57:02;3.22;;;1.23;;
33830;SDS011;20137;48.834;8.732;2022-09-13T12:00:37;2.13;;;1.20;;
33830;SDS011;20137;48.834;8.732;2022-09-13T12:05:55;3.67;;;1.55;;
33830;SDS011;20137;48.834;8.732;2022-09-13T12:08:26;5.00;;;1.40;;
33830;SDS011;20137;48.834;8.732;2022-09-13T12:13:29;2.17;;;1.15;;
33830;SDS011;20137;48.834;8.732;2022-09-13T12:16:19;2.00;;;1.08;;
33830;SDS011;20137;48.834;8.732;2022-09-13T12:19:17;2.35;;;1.33;;
33830;SDS011;20137;48.834;8.732;2022-09-13T12:21:50;2.47;;;1.25;;
33830;SDS011;20137;48.834;8.732;2022-09-13T12:29:50;2.60;;;1.00;;
33830;SDS011;20137;48.834;8.732;2022-09-13T12:32:25;2.10;;;1.13;;
33830;SDS011;20137;48.834;8.732;2022-09-13T12:34:58;2.60;;;1.38;;
33830;SDS011;20137;48.834;8.732;2022-09-13T12:47:58;2.63;;;1.60;;
33830;SDS011;20137;48.834;8.732;2022-09-13T13:01:16;3.83;;;1.60;;
33830;SDS011;20137;48.834;8.732;2022-09-13T13:03:47;2.70;;;1.05;;
33830;SDS011;20137;48.834;8.732;2022-09-13T13:06:34;1.02;;;0.93;;
33830;SDS011;20137;48.834;8.732;2022-09-13T13:09:23;2.55;;;0.90;;
33830;SDS011;20137;48.834;8.732;2022-09-13T13:12:08;3.72;;;1.00;;
33830;SDS011;20137;48.834;8.732;2022-09-13T13:33:52;1.48;;;0.93;;
33830;SDS011;20137;48.834;8.732;2022-09-13T13:38:58;2.08;;;0.70;;
33830;SDS011;20137;48.834;8.732;2022-09-13T13:43:57;2.50;;;0.80;;
33830;SDS011;20137;48.834;8.732;2022-09-13T13:48:52;3.08;;;0.70;;
33830;SDS011;20137;48.834;8.732;2022-09-13T13:54:04;1.30;;;0.95;;
33830;SDS011;20137;48.834;8.732;2022-09-13T13:56:53;1.45;;;0.85;;
33830;SDS011;20137;48.834;8.732;2022-09-13T13:59:26;3.40;;;0.73;;
33830;SDS011;20137;48.834;8.732;2022-09-13T14:01:57;3.22;;;0.70;;
33830;SDS011;20137;48.834;8.732;2022-09-13T14:10:09;4.70;;;1.27;;
33830;SDS011;20137;48.834;8.732;2022-09-13T14:15:40;8.27;;;1.30;;
33830;SDS011;20137;48.834;8.732;2022-09-13T14:18:34;2.42;;;1.02;;
33830;SDS011;20137;48.834;8.732;2022-09-13T14:21:24;2.17;;;0.68;;
33830;SDS011;20137;48.834;8.732;2022-09-13T14:26:41;1.08;;;0.88;;
33830;SDS011;20137;48.834;8.732;2022-09-13T14:29:08;4.13;;;0.82;;
33830;SDS011;20137;48.834;8.732;2022-09-13T14:31:34;6.22;;;1.45;;
33830;SDS011;20137;48.834;8.732;2022-09-13T14:34:01;2.13;;;1.02;;
33830;SDS011;20137;48.834;8.732;2022-09-13T14:36:27;2.53;;;0.80;;
33830;SDS011;20137;48.834;8.732;2022-09-13T14:38:57;2.83;;;0.80;;
33830;SDS011;20137;48.834;8.732;2022-09-13T14:41:35;6.50;;;1.80;;
33830;SDS011;20137;48.834;8.732;2022-09-13T14:44:16;5.47;;;1.95;;
33830;SDS011;20137;48.834;8.732;2022-09-13T14:46:46;2.88;;;1.50;;
33830;SDS011;20137;48.834;8.732;2022-09-13T14:49:23;6.22;;;2.28;;
33830;SDS011;20137;48.834;8.732;2022-09-13T14:51:55;5.78;;;3.30;;
33830;SDS011;20137;48.834;8.732;2022-09-13T14:57:13;4.90;;;1.58;;
33830;SDS011;20137;48.834;8.732;2022-09-13T14:59:55;4.22;;;1.27;;
33830;SDS011;20137;48.834;8.732;2022-09-13T15:02:26;4.30;;;1.25;;
33830;SDS011;20137;48.834;8.732;2022-09-13T15:04:56;4.50;;;1.13;;
33830;SDS011;20137;48.834;8.732;2022-09-13T15:09:56;4.75;;;1.30;;
33830;SDS011;20137;48.834;8.732;2022-09-13T15:15:23;4.72;;;1.27;;
33830;SDS011;20137;48.834;8.732;2022-09-13T15:20:24;3.35;;;1.60;;
33830;SDS011;20137;48.834;8.732;2022-09-13T15:22:53;10.55;;;1.60;;
33830;SDS011;20137;48.834;8.732;2022-09-13T15:25:23;3.90;;;1.50;;
33830;SDS011;20137;48.834;8.732;2022-09-13T15:27:54;4.47;;;1.33;;
33830;SDS011;20137;48.834;8.732;2022-09-13T15:35:30;6.53;;;1.60;;
33830;SDS011;20137;48.834;8.732;2022-09-13T15:43:38;5.03;;;1.30;;
33830;SDS011;20137;48.834;8.732;2022-09-13T15:46:04;1.48;;;1.20;;
33830;SDS011;20137;48.834;8.732;2022-09-13T15:48:31;6.38;;;1.60;;
33830;SDS011;20137;48.834;8.732;2022-09-13T15:53:32;5.00;;;1.40;;
33830;SDS011;20137;48.834;8.732;2022-09-13T15:56:00;7.47;;;1.70;;
33830;SDS011;20137;48.834;8.732;2022-09-13T15:58:27;2.92;;;1.70;;
33830;SDS011;20137;48.834;8.732;2022-09-13T16:00:53;6.25;;;1.60;;
33830;SDS011;20137;48.834;8.732;2022-09-13T16:03:18;5.68;;;1.27;;
33830;SDS011;20137;48.834;8.732;2022-09-13T16:05:44;5.25;;;1.60;;
33830;SDS011;20137;48.834;8.732;2022-09-13T16:08:10;7.00;;;1.35;;
33830;SDS011;20137;48.834;8.732;2022-09-13T16:10:36;4.32;;;1.60;;
33830;SDS011;20137;48.834;8.732;2022-09-13T16:13:02;3.53;;;1.30;;
33830;SDS011;20137;48.834;8.732;2022-09-13T16:15:28;4.40;;;1.30;;
33830;SDS011;20137;48.834;8.732;2022-09-13T16:17:54;3.92;;;1.40;;
33830;SDS011;20137;48.834;8.732;2022-09-13T16:20:20;6.70;;;1.60;;
33830;SDS011;20137;48.834;8.732;2022-09-13T16:22:46;5.50;;;2.05;;
33830;SDS011;20137;48.834;8.732;2022-09-13T16:25:12;4.53;;;1.60;;
33830;SDS011;20137;48.834;8.732;2022-09-13T16:27:40;7.32;;;1.90;;
33830;SDS011;20137;48.834;8.732;2022-09-13T16:30:08;6.05;;;1.40;;
33830;SDS011;20137;48.834;8.732;2022-09-13T16:32:36;4.43;;;1.75;;
33830;SDS011;20137;48.834;8.732;2022-09-13T16:35:02;3.47;;;1.55;;
33830;SDS011;20137;48.834;8.732;2022-09-13T16:37:28;2.42;;;1.40;;
33830;SDS011;20137;48.834;8.732;2022-09-13T16:39:55;2.88;;;1.45;;
33830;SDS011;20137;48.834;8.732;2022-09-13T16:42:22;5.35;;;1.60;;
33830;SDS011;20137;48.834;8.732;2022-09-13T16:44:47;4.30;;;1.50;;
33830;SDS011;20137;48.834;8.732;2022-09-13T16:47:14;2.20;;;1.42;;
33830;SDS011;20137;48.834;8.732;2022-09-13T16:49:39;4.28;;;1.40;;
33830;SDS011;20137;48.834;8.732;2022-09-13T16:52:05;5.13;;;1.40;;
33830;SDS011;20137;48.834;8.732;2022-09-13T16:54:31;3.65;;;1.40;;
33830;SDS011;20137;48.834;8.732;2022-09-13T16:56:59;3.67;;;1.50;;
33830;SDS011;20137;48.834;8.732;2022-09-13T16:59:29;2.03;;;1.30;;
33830;SDS011;20137;48.834;8.732;2022-09-13T17:01:55;4.88;;;1.50;;
33830;SDS011;20137;48.834;8.732;2022-09-13T17:04:21;5.85;;;1.25;;
33830;SDS011;20137;48.834;8.732;2022-09-13T17:06:47;3.83;;;1.25;;
33830;SDS011;20137;48.834;8.732;2022-09-13T17:09:13;4.93;;;1.60;;
33830;SDS011;20137;48.834;8.732;2022-09-13T17:11:40;4.25;;;1.58;;
33830;SDS011;20137;48.834;8.732;2022-09-13T17:14:07;2.25;;;1.30;;
33830;SDS011;20137;48.834;8.732;2022-09-13T17:16:36;1.50;;;1.00;;
33830;SDS011;20137;48.834;8.732;2022-09-13T17:19:05;4.75;;;1.38;;
33830;SDS011;20137;48.834;8.732;2022-09-13T17:21:34;1.90;;;1.10;;
33830;SDS011;20137;48.834;8.732;2022-09-13T17:24:00;2.08;;;1.20;;
33830;SDS011;20137;48.834;8.732;2022-09-13T17:26:26;5.22;;;1.38;;
33830;SDS011;20137;48.834;8.732;2022-09-13T17:28:52;2.03;;;1.10;;
33830;SDS011;20137;48.834;8.732;2022-09-13T17:31:18;6.15;;;1.02;;
33830;SDS011;20137;48.834;8.732;2022-09-13T17:33:43;3.00;;;0.90;;
33830;SDS011;20137;48.834;8.732;2022-09-13T17:36:10;1.60;;;0.85;;
33830;SDS011;20137;48.834;8.732;2022-09-13T17:38:38;1.88;;;1.00;;
33830;SDS011;20137;48.834;8.732;2022-09-13T17:41:05;3.13;;;0.93;;
33830;SDS011;20137;48.834;8.732;2022-09-13T17:43:34;2.58;;;1.10;;
33830;SDS011;20137;48.834;8.732;2022-09-13T17:46:02;2.13;;;1.00;;
33830;SDS011;20137;48.834;8.732;2022-09-13T17:48:29;2.80;;;1.17;;
33830;SDS011;20137;48.834;8.732;2022-09-13T17:51:02;2.08;;;1.20;;
33830;SDS011;20137;48.834;8.732;2022-09-13T17:53:30;4.10;;;1.00;;
33830;SDS011;20137;48.834;8.732;2022-09-13T17:56:01;4.10;;;0.90;;
33830;SDS011;20137;48.834;8.732;2022-09-13T17:58:27;1.15;;;0.75;;
33830;SDS011;20137;48.834;8.732;2022-09-13T18:01:03;5.85;;;1.10;;
33830;SDS011;20137;48.834;8.732;2022-09-13T18:03:31;0.90;;;0.77;;
33830;SDS011;20137;48.834;8.732;2022-09-13T18:05:57;3.22;;;1.23;;
33830;SDS011;20137;48.834;8.732;2022-09-13T18:08:24;2.67;;;1.35;;
33830;SDS011;20137;48.834;8.732;2022-09-13T18:10:51;2.83;;;1.10;;
33830;SDS011;20137;48.834;8.732;2022-09-13T18:13:16;1.30;;;0.95;;
33830;SDS011;20137;48.834;8.732;2022-09-13T18:15:43;1.98;;;1.10;;
33830;SDS011;20137;48.834;8.732;2022-09-13T18:18:10;2.00;;;1.20;;
33830;SDS011;20137;48.834;8.732;2022-09-13T18:20:36;1.20;;;1.02;;
33830;SDS011;20137;48.834;8.732;2022-09-13T18:23:02;2.25;;;1.00;;
33830;SDS011;20137;48.834;8.732;2022-09-13T18:25:28;1.50;;;1.02;;
33830;SDS011;20137;48.834;8.732;2022-09-13T18:27:53;3.15;;;0.90;;
33830;SDS011;20137;48.834;8.732;2022-09-13T18:30:19;5.80;;;1.27;;
33830;SDS011;20137;48.834;8.732;2022-09-13T18:32:45;6.68;;;0.98;;
33830;SDS011;20137;48.834;8.732;2022-09-13T18:35:10;4.28;;;1.00;;
33830;SDS011;20137;48.834;8.732;2022-09-13T18:37:36;1.63;;;1.20;;
33830;SDS011;20137;48.834;8.732;2022-09-13T18:40:02;1.92;;;1.10;;
33830;SDS011;20137;48.834;8.732;2022-09-13T18:42:30;2.58;;;1.20;;
33830;SDS011;20137;48.834;8.732;2022-09-13T18:44:55;2.35;;;1.20;;
33830;SDS011;20137;48.834;8.732;2022-09-13T18:47:21;1.40;;;1.05;;
33830;SDS011;20137;48.834;8.732;2022-09-13T18:49:47;3.08;;;1.20;;
33830;SDS011;20137;48.834;8.732;2022-09-13T18:52:13;6.68;;;1.13;;
33830;SDS011;20137;48.834;8.732;2022-09-13T18:54:39;2.85;;;1.20;;
33830;SDS011;20137;48.834;8.732;2022-09-13T18:57:05;3.75;;;1.23;;
33830;SDS011;20137;48.834;8.732;2022-09-13T18:59:31;3.03;;;1.10;;
33830;SDS011;20137;48.834;8.732;2022-09-13T19:01:57;4.20;;;1.35;;
33830;SDS011;20137;48.834;8.732;2022-09-13T19:04:23;10.10;;;1.52;;